createdAt,value
2023-02-11T00:00:46.337Z,25.74
2023-02-11T00:01:43.753Z,24.67
2023-02-11T00:02:41.512Z,24.96
2023-02-11T00:03:39.051Z,26.34
2023-02-11T00:04:36.546Z,26.85
2023-02-11T00:05:34.277Z,26.56
2023-02-11T00:06:33.416Z,26.50
2023-02-11T00:07:31.300Z,27.28
2023-02-11T00:08:28.604Z,27.16
2023-02-11T00:09:25.956Z,27.96
2023-02-11T00:10:23.331Z,28.60
2023-02-11T00:11:22.371Z,28.79
2023-02-11T00:12:19.754Z,29.31
2023-02-11T00:13:17.123Z,28.59
2023-02-11T00:14:14.604Z,28.52
2023-02-11T00:15:11.953Z,27.49
2023-02-11T00:16:11.820Z,26.64
2023-02-11T00:17:09.226Z,26.73
2023-02-11T00:18:06.571Z,26.18
2023-02-11T00:19:06.311Z,25.49
2023-02-11T00:20:05.477Z,25.94
2023-02-11T00:21:12.154Z,25.95
2023-02-11T00:22:09.773Z,27.71
2023-02-11T00:23:07.143Z,27.97
2023-02-11T00:24:04.585Z,28.86
2023-02-11T00:25:02.070Z,26.87
2023-02-11T00:25:59.405Z,25.46
2023-02-11T00:26:56.722Z,25.62
2023-02-11T00:27:54.107Z,26.64
2023-02-11T00:28:52.017Z,26.20
2023-02-11T00:29:49.357Z,24.82
2023-02-11T00:30:53.752Z,24.10
2023-02-11T00:31:51.226Z,24.76
2023-02-11T00:32:48.689Z,23.63
2023-02-11T00:33:46.146Z,24.24
2023-02-11T00:34:43.469Z,25.59
2023-02-11T00:35:40.740Z,24.58
2023-02-11T00:36:38.062Z,22.81
2023-02-11T00:37:36.527Z,23.15
2023-02-11T00:38:34.117Z,22.32
2023-02-11T00:39:32.016Z,22.22
2023-02-11T00:40:29.337Z,20.96
2023-02-11T00:41:26.847Z,21.92
2023-02-11T00:42:24.469Z,21.84
2023-02-11T00:43:22.026Z,21.40
2023-02-11T00:44:19.659Z,21.06
2023-02-11T00:45:17.036Z,22.66
2023-02-11T00:46:14.953Z,21.92
2023-02-11T00:47:12.380Z,22.23
2023-02-11T00:48:09.824Z,21.56
2023-02-11T00:49:07.206Z,22.19
2023-02-11T00:50:05.612Z,22.59
2023-02-11T00:51:04.214Z,22.42
2023-02-11T00:52:01.560Z,21.21
2023-02-11T00:52:58.970Z,21.83
2023-02-11T00:53:56.311Z,22.26
2023-02-11T00:54:53.677Z,21.48
2023-02-11T00:55:51.264Z,21.65
2023-02-11T00:56:48.798Z,21.37
2023-02-11T00:57:46.249Z,22.26
2023-02-11T00:58:43.611Z,22.86
2023-02-11T00:59:41.195Z,22.86
2023-02-11T01:00:38.544Z,22.90
2023-02-11T01:01:36.030Z,23.30
2023-02-11T01:02:33.550Z,22.85
2023-02-11T01:03:31.002Z,23.03
2023-02-11T01:04:28.446Z,23.53
2023-02-11T01:05:25.892Z,26.97
2023-02-11T01:06:23.304Z,24.30
2023-02-11T01:07:20.666Z,25.19
2023-02-11T01:08:18.041Z,24.94
2023-02-11T01:09:15.369Z,25.88
2023-02-11T01:10:13.021Z,24.33
2023-02-11T01:11:16.199Z,25.35
2023-02-11T01:12:13.553Z,27.09
2023-02-11T01:13:10.954Z,28.50
2023-02-11T01:14:08.432Z,28.55
2023-02-11T01:15:07.176Z,28.35
2023-02-11T01:16:07.597Z,27.83
2023-02-11T01:17:05.801Z,27.34
2023-02-11T01:18:04.860Z,28.45
2023-02-11T01:19:02.236Z,26.87
2023-02-11T01:19:59.557Z,27.99
2023-02-11T01:20:56.898Z,26.56
2023-02-11T01:21:54.223Z,25.91
2023-02-11T01:22:51.565Z,27.49
2023-02-11T01:23:48.894Z,27.08
2023-02-11T01:24:46.216Z,26.71
2023-02-11T01:25:43.556Z,25.71
2023-02-11T01:26:41.027Z,25.58
2023-02-11T01:27:39.030Z,26.05
2023-02-11T01:28:36.565Z,27.46
2023-02-11T01:29:33.989Z,26.61
2023-02-11T01:30:31.417Z,27.66
2023-02-11T01:31:30.421Z,26.28
2023-02-11T01:32:27.855Z,28.80
2023-02-11T01:33:25.228Z,27.79
2023-02-11T01:34:22.610Z,26.87
2023-02-11T01:35:19.922Z,27.28
2023-02-11T01:36:17.329Z,27.90
2023-02-11T01:37:14.640Z,27.25
2023-02-11T01:38:17.219Z,27.66
2023-02-11T01:39:14.642Z,27.95
2023-02-11T01:40:14.815Z,27.30
2023-02-11T01:41:14.838Z,27.09
2023-02-11T01:42:16.281Z,26.99
2023-02-11T01:43:13.674Z,26.55
2023-02-11T01:44:22.904Z,26.08
2023-02-11T01:45:39.077Z,25.81
2023-02-11T01:46:37.975Z,26.90
2023-02-11T01:47:35.349Z,27.54
2023-02-11T01:48:36.544Z,26.55
2023-02-11T01:49:33.959Z,26.85
2023-02-11T01:50:31.661Z,26.48
2023-02-11T01:51:49.912Z,26.73
2023-02-11T01:52:48.022Z,26.71
2023-02-11T01:54:06.362Z,26.72
2023-02-11T01:55:25.285Z,26.94
2023-02-11T01:56:44.146Z,26.26
2023-02-11T01:57:45.081Z,25.86
2023-02-11T01:58:44.627Z,26.83
2023-02-11T01:59:47.980Z,27.43
2023-02-11T02:00:47.396Z,25.66
2023-02-11T02:01:49.159Z,26.70
2023-02-11T02:02:55.520Z,26.40
2023-02-11T02:03:57.470Z,26.68
2023-02-11T02:05:02.747Z,25.40
2023-02-11T02:06:07.961Z,25.13
2023-02-11T02:07:18.066Z,25.01
2023-02-11T02:08:15.377Z,25.22
2023-02-11T02:09:29.108Z,23.72
2023-02-11T02:10:28.661Z,23.90
2023-02-11T02:11:26.455Z,23.74
2023-02-11T02:12:23.959Z,25.17
2023-02-11T02:13:23.995Z,25.81
2023-02-11T02:14:21.864Z,24.90
2023-02-11T02:15:22.176Z,24.22
2023-02-11T02:16:21.486Z,23.89
2023-02-11T02:17:29.130Z,24.37
2023-02-11T02:18:45.212Z,23.76
2023-02-11T02:20:01.089Z,23.92
2023-02-11T02:21:16.920Z,23.78
2023-02-11T02:22:32.227Z,23.32
2023-02-11T02:23:48.139Z,23.81
2023-02-11T02:24:51.433Z,23.81
2023-02-11T02:25:51.780Z,23.27
2023-02-11T02:26:55.175Z,24.85
2023-02-11T02:28:21.703Z,23.58
2023-02-11T02:29:37.432Z,23.83
2023-02-11T02:30:43.683Z,23.91
2023-02-11T02:31:59.506Z,23.82
2023-02-11T02:33:23.972Z,23.84
2023-02-11T02:34:30.929Z,23.79
2023-02-11T02:35:43.075Z,24.98
2023-02-11T02:36:46.745Z,24.85
2023-02-11T02:37:53.424Z,24.18
2023-02-11T02:39:04.782Z,25.33
2023-02-11T02:40:08.103Z,24.69
2023-02-11T02:41:10.987Z,23.76
2023-02-11T02:42:09.319Z,23.81
2023-02-11T02:43:09.594Z,23.96
2023-02-11T02:44:08.324Z,23.31
2023-02-11T02:45:07.443Z,23.49
2023-02-11T02:46:24.994Z,24.12
2023-02-11T02:47:22.325Z,24.02
2023-02-11T02:48:30.403Z,23.61
2023-02-11T02:49:27.768Z,22.85
2023-02-11T02:50:32.007Z,22.37
2023-02-11T02:51:35.387Z,24.02
2023-02-11T02:52:32.715Z,24.25
2023-02-11T02:53:43.902Z,24.45
2023-02-11T02:54:44.064Z,23.98
2023-02-11T02:55:55.987Z,23.95
2023-02-11T02:57:01.314Z,25.30
2023-02-11T02:58:01.432Z,24.35
2023-02-11T02:59:03.558Z,26.01
2023-02-11T03:00:12.847Z,26.18
2023-02-11T03:01:33.236Z,26.80
2023-02-11T03:02:44.074Z,26.76
2023-02-11T03:03:49.396Z,25.71
2023-02-11T03:05:13.004Z,24.84
2023-02-11T03:06:22.071Z,24.99
2023-02-11T03:07:22.236Z,24.64
2023-02-11T03:08:40.473Z,24.56
2023-02-11T03:09:37.814Z,23.75
2023-02-11T03:10:45.306Z,23.16
2023-02-11T03:11:42.696Z,23.39
2023-02-11T03:12:43.113Z,24.06
2023-02-11T03:13:42.454Z,22.93
2023-02-11T03:14:42.119Z,21.15
2023-02-11T03:15:44.010Z,20.47
2023-02-11T03:16:44.617Z,21.42
2023-02-11T03:17:46.853Z,20.87
2023-02-11T03:18:48.951Z,20.36
2023-02-11T03:19:48.699Z,20.91
2023-02-11T03:20:50.625Z,20.39
2023-02-11T03:21:49.910Z,20.24
2023-02-11T03:22:55.989Z,21.38
2023-02-11T03:23:56.408Z,20.78
2023-02-11T03:24:56.221Z,21.16
2023-02-11T03:25:58.512Z,19.65
2023-02-11T03:26:58.643Z,19.59
2023-02-11T03:28:03.638Z,20.33
2023-02-11T03:29:07.989Z,19.71
2023-02-11T03:30:16.768Z,19.54
2023-02-11T03:31:23.055Z,20.06
2023-02-11T03:32:28.595Z,19.78
2023-02-11T03:33:44.605Z,20.83
2023-02-11T03:34:44.711Z,20.77
2023-02-11T03:35:47.988Z,20.02
2023-02-11T03:36:49.955Z,20.92
2023-02-11T03:37:49.981Z,21.03
2023-02-11T03:38:50.963Z,20.39
2023-02-11T03:39:54.908Z,20.44
2023-02-11T03:40:55.754Z,21.02
2023-02-11T03:41:56.174Z,20.59
2023-02-11T03:42:57.635Z,20.31
2023-02-11T03:43:58.413Z,21.36
2023-02-11T03:45:02.904Z,21.67
2023-02-11T03:46:02.972Z,20.03
2023-02-11T03:47:03.055Z,19.77
2023-02-11T03:48:03.977Z,19.89
2023-02-11T03:49:06.505Z,20.35
2023-02-11T03:50:06.701Z,21.11
2023-02-11T03:51:07.286Z,21.32
2023-02-11T03:52:06.787Z,21.30
2023-02-11T03:53:05.282Z,19.96
2023-02-11T03:54:06.239Z,20.91
2023-02-11T03:55:08.485Z,20.04
2023-02-11T03:56:09.090Z,20.94
2023-02-11T03:57:06.476Z,20.28
2023-02-11T03:58:04.075Z,21.30
2023-02-11T03:59:01.660Z,21.93
2023-02-11T03:59:59.831Z,22.23
2023-02-11T04:00:57.381Z,20.98
2023-02-11T04:01:54.892Z,22.63
2023-02-11T04:02:52.281Z,21.60
2023-02-11T04:03:49.853Z,20.70
2023-02-11T04:04:47.502Z,20.86
2023-02-11T04:05:45.226Z,20.22
2023-02-11T04:06:43.378Z,21.88
2023-02-11T04:07:40.736Z,22.16
2023-02-11T04:08:38.132Z,23.39
2023-02-11T04:09:36.847Z,22.89
2023-02-11T04:10:34.193Z,22.53
2023-02-11T04:11:31.589Z,21.28
2023-02-11T04:12:28.901Z,21.53
2023-02-11T04:13:26.358Z,22.02
2023-02-11T04:14:23.653Z,21.05
2023-02-11T04:15:21.005Z,21.42
2023-02-11T04:16:18.446Z,20.57
2023-02-11T04:17:16.873Z,21.23
2023-02-11T04:18:14.276Z,21.09
2023-02-11T04:19:11.638Z,20.84
2023-02-11T04:20:09.541Z,20.92
2023-02-11T04:21:07.162Z,20.51
2023-02-11T04:22:04.727Z,20.87
2023-02-11T04:23:02.101Z,46.53
2023-02-11T04:23:59.417Z,37.38
2023-02-11T04:24:56.868Z,23.58
2023-02-11T04:25:54.294Z,22.32
2023-02-11T04:26:51.695Z,21.72
2023-02-11T04:27:49.150Z,29.48
2023-02-11T04:28:46.534Z,35.90
2023-02-11T04:29:43.981Z,38.41
2023-02-11T04:30:41.471Z,34.07
2023-02-11T04:31:38.872Z,23.39
2023-02-11T04:32:36.384Z,21.90
2023-02-11T04:33:33.761Z,22.80
2023-02-11T04:34:31.238Z,21.93
2023-02-11T04:35:28.595Z,21.43
2023-02-11T04:36:26.007Z,22.34
2023-02-11T04:37:23.404Z,21.31
2023-02-11T04:38:20.775Z,21.33
2023-02-11T04:39:18.265Z,20.92
2023-02-11T04:40:15.658Z,22.21
2023-02-11T04:41:13.124Z,22.88
2023-02-11T04:42:10.449Z,22.18
2023-02-11T04:43:08.485Z,21.48
2023-02-11T04:44:06.097Z,22.13
2023-02-11T04:45:03.649Z,22.43
2023-02-11T04:46:00.988Z,22.76
2023-02-11T04:46:58.403Z,22.17
2023-02-11T04:47:55.722Z,22.13
2023-02-11T04:48:53.111Z,21.69
2023-02-11T04:49:50.459Z,23.05
2023-02-11T04:50:47.782Z,23.63
2023-02-11T04:51:47.594Z,22.12
2023-02-11T04:52:46.322Z,22.08
2023-02-11T04:53:43.709Z,22.23
2023-02-11T04:54:41.106Z,23.34
2023-02-11T04:55:38.467Z,24.55
2023-02-11T04:56:35.790Z,35.34
2023-02-11T04:57:33.105Z,32.32
2023-02-11T04:58:30.638Z,24.99
2023-02-11T04:59:28.014Z,22.25
2023-02-11T05:00:25.384Z,23.17
2023-02-11T05:01:22.994Z,22.79
2023-02-11T05:02:20.467Z,22.30
2023-02-11T05:03:17.836Z,22.11
2023-02-11T05:04:15.561Z,21.48
2023-02-11T05:05:12.953Z,22.04
2023-02-11T05:06:10.588Z,21.22
2023-02-11T05:07:07.950Z,22.02
2023-02-11T05:08:05.310Z,22.11
2023-02-11T05:09:02.690Z,21.72
2023-02-11T05:10:00.160Z,25.76
2023-02-11T05:10:57.823Z,26.94
2023-02-11T05:11:55.204Z,29.10
2023-02-11T05:12:55.330Z,25.12
2023-02-11T05:13:53.135Z,22.79
2023-02-11T05:14:50.439Z,22.21
2023-02-11T05:15:47.913Z,22.06
2023-02-11T05:16:45.521Z,22.85
2023-02-11T05:17:42.854Z,21.62
2023-02-11T05:18:41.820Z,21.26
2023-02-11T05:19:39.161Z,21.56
2023-02-11T05:20:39.407Z,21.18
2023-02-11T05:21:36.809Z,21.49
2023-02-11T05:22:34.220Z,22.47
2023-02-11T05:23:31.573Z,26.19
2023-02-11T05:24:28.878Z,25.48
2023-02-11T05:25:26.217Z,23.58
2023-02-11T05:26:23.592Z,24.85
2023-02-11T05:27:20.961Z,29.89
2023-02-11T05:28:18.369Z,31.12
2023-02-11T05:29:15.799Z,33.91
2023-02-11T05:30:13.387Z,34.52
2023-02-11T05:31:11.135Z,37.27
2023-02-11T05:32:09.119Z,34.49
2023-02-11T05:33:06.752Z,28.60
2023-02-11T05:34:04.203Z,28.54
2023-02-11T05:35:01.556Z,31.20
2023-02-11T05:36:03.318Z,39.31
2023-02-11T05:37:01.105Z,37.74
2023-02-11T05:37:58.457Z,31.48
2023-02-11T05:38:55.808Z,29.95
2023-02-11T05:39:53.184Z,29.54
2023-02-11T05:40:50.497Z,27.77
2023-02-11T05:41:47.856Z,25.91
2023-02-11T05:42:45.166Z,26.17
2023-02-11T05:43:42.732Z,24.46
2023-02-11T05:44:40.203Z,24.52
2023-02-11T05:45:37.532Z,25.08
2023-02-11T05:46:34.867Z,23.76
2023-02-11T05:47:32.238Z,23.86
2023-02-11T05:48:29.922Z,22.94
2023-02-11T05:49:27.205Z,22.63
2023-02-11T05:50:25.228Z,22.93
2023-02-11T05:51:22.717Z,21.15
2023-02-11T05:52:20.704Z,21.61
2023-02-11T05:53:18.180Z,21.16
2023-02-11T05:54:16.789Z,22.76
2023-02-11T05:55:14.232Z,22.01
2023-02-11T05:56:11.770Z,24.15
2023-02-11T05:57:09.141Z,22.74
2023-02-11T05:58:07.972Z,23.58
2023-02-11T05:59:05.588Z,25.11
2023-02-11T06:00:04.618Z,23.27
2023-02-11T06:01:01.917Z,22.13
2023-02-11T06:01:59.265Z,21.14
2023-02-11T06:02:56.712Z,20.16
2023-02-11T06:03:54.282Z,19.53
2023-02-11T06:04:51.672Z,20.09
2023-02-11T06:05:49.183Z,18.93
2023-02-11T06:06:46.729Z,19.58
2023-02-11T06:07:44.124Z,19.45
2023-02-11T06:08:41.742Z,19.34
2023-02-11T06:09:39.055Z,18.89
2023-02-11T06:10:36.523Z,19.16
2023-02-11T06:11:33.880Z,18.49
2023-02-11T06:12:31.240Z,18.89
2023-02-11T06:13:28.623Z,19.39
2023-02-11T06:14:25.990Z,19.18
2023-02-11T06:15:23.371Z,19.33
2023-02-11T06:16:20.734Z,19.68
2023-02-11T06:17:18.060Z,20.36
2023-02-11T06:18:15.369Z,24.10
2023-02-11T06:19:12.927Z,24.65
2023-02-11T06:20:11.383Z,21.22
2023-02-11T06:21:10.471Z,20.98
2023-02-11T06:22:07.867Z,24.63
2023-02-11T06:23:05.515Z,35.19
2023-02-11T06:24:02.806Z,55.71
2023-02-11T06:25:02.077Z,50.11
2023-02-11T06:26:06.952Z,50.37
2023-02-11T06:27:04.980Z,41.04
2023-02-11T06:28:02.318Z,35.97
2023-02-11T06:29:00.151Z,67.21
2023-02-11T06:29:57.562Z,96.63
2023-02-11T06:30:55.030Z,61.70
2023-02-11T06:31:52.521Z,35.69
2023-02-11T06:32:49.997Z,39.79
2023-02-11T06:33:47.470Z,27.36
2023-02-11T06:34:45.556Z,23.25
2023-02-11T06:35:42.899Z,21.76
2023-02-11T06:36:41.171Z,20.06
2023-02-11T06:37:38.534Z,24.29
2023-02-11T06:38:35.851Z,30.95
2023-02-11T06:39:33.334Z,22.09
2023-02-11T06:40:30.675Z,22.47
2023-02-11T06:41:28.111Z,22.01
2023-02-11T06:42:25.475Z,24.06
2023-02-11T06:43:22.844Z,37.56
2023-02-11T06:44:20.299Z,24.24
2023-02-11T06:45:17.763Z,21.65
2023-02-11T06:46:16.099Z,21.18
2023-02-11T06:47:13.579Z,21.85
2023-02-11T06:48:10.994Z,21.97
2023-02-11T06:49:08.322Z,20.78
2023-02-11T06:50:07.600Z,21.28
2023-02-11T06:51:09.686Z,21.19
2023-02-11T06:52:07.016Z,21.44
2023-02-11T06:53:04.404Z,22.34
2023-02-11T06:54:01.755Z,21.78
2023-02-11T06:54:59.448Z,22.95
2023-02-11T06:55:56.769Z,22.65
2023-02-11T06:56:54.156Z,22.42
2023-02-11T06:57:51.555Z,23.31
2023-02-11T06:58:52.354Z,23.84
2023-02-11T06:59:49.662Z,22.42
2023-02-11T07:00:47.022Z,22.45
2023-02-11T07:01:44.566Z,21.72
2023-02-11T07:02:42.094Z,37.35
2023-02-11T07:03:41.457Z,88.71
2023-02-11T07:04:38.784Z,50.31
2023-02-11T07:05:38.264Z,60.30
2023-02-11T07:06:37.526Z,46.03
2023-02-11T07:07:35.014Z,34.98
2023-02-11T07:08:36.768Z,34.28
2023-02-11T07:09:34.092Z,76.20
2023-02-11T07:10:31.403Z,30.45
2023-02-11T07:11:29.154Z,23.06
2023-02-11T07:12:26.502Z,29.82
2023-02-11T07:13:23.808Z,37.37
2023-02-11T07:14:22.257Z,36.12
2023-02-11T07:15:19.614Z,31.32
2023-02-11T07:16:17.869Z,29.54
2023-02-11T07:17:15.305Z,28.31
2023-02-11T07:18:14.692Z,30.41
2023-02-11T07:19:12.226Z,25.35
2023-02-11T07:20:12.417Z,23.83
2023-02-11T07:21:11.135Z,26.63
2023-02-11T07:22:08.502Z,64.04
2023-02-11T07:23:05.954Z,55.99
2023-02-11T07:24:08.897Z,40.02
2023-02-11T07:25:08.129Z,30.29
2023-02-11T07:26:06.765Z,64.92
2023-02-11T07:27:04.701Z,62.25
2023-02-11T07:28:03.456Z,65.59
2023-02-11T07:29:00.841Z,116.66
2023-02-11T07:29:58.190Z,85.53
2023-02-11T07:30:55.645Z,76.01
2023-02-11T07:31:53.061Z,63.51
2023-02-11T07:32:50.489Z,74.14
2023-02-11T07:33:47.919Z,51.16
2023-02-11T07:34:45.546Z,60.17
2023-02-11T07:35:42.892Z,60.82
2023-02-11T07:36:40.360Z,38.55
2023-02-11T07:37:37.682Z,45.22
2023-02-11T07:38:35.511Z,112.20
2023-02-11T07:39:32.876Z,81.77
2023-02-11T07:40:31.688Z,57.81
2023-02-11T07:41:29.076Z,58.93
2023-02-11T07:42:26.476Z,40.97
2023-02-11T07:43:23.837Z,36.40
2023-02-11T07:44:22.776Z,39.87
2023-02-11T07:45:20.119Z,56.08
2023-02-11T07:46:22.116Z,54.60
2023-02-11T07:47:19.772Z,42.20
2023-02-11T07:48:17.134Z,52.92
2023-02-11T07:49:14.927Z,47.78
2023-02-11T07:50:12.247Z,93.64
2023-02-11T07:51:11.222Z,64.84
2023-02-11T07:52:08.583Z,54.20
2023-02-11T07:53:05.912Z,42.22
2023-02-11T07:54:03.353Z,48.89
2023-02-11T07:55:03.175Z,54.05
2023-02-11T07:56:03.767Z,42.52
2023-02-11T07:57:01.170Z,46.91
2023-02-11T07:57:58.529Z,68.64
2023-02-11T07:59:00.606Z,51.08
2023-02-11T07:59:57.957Z,50.52
2023-02-11T08:00:55.391Z,84.97
2023-02-11T08:01:53.002Z,78.43
2023-02-11T08:02:50.397Z,55.32
2023-02-11T08:03:47.948Z,60.03
2023-02-11T08:04:48.430Z,52.59
2023-02-11T08:05:45.740Z,59.09
2023-02-11T08:06:43.678Z,48.58
2023-02-11T08:07:41.048Z,57.27
2023-02-11T08:08:39.115Z,64.49
2023-02-11T08:09:36.582Z,52.83
2023-02-11T08:10:33.922Z,63.09
2023-02-11T08:11:31.314Z,62.03
2023-02-11T08:12:28.646Z,45.13
2023-02-11T08:13:27.095Z,43.41
2023-02-11T08:14:25.304Z,40.26
2023-02-11T08:15:22.654Z,39.91
2023-02-11T08:16:25.141Z,37.53
2023-02-11T08:17:22.526Z,42.12
2023-02-11T08:18:19.850Z,39.79
2023-02-11T08:19:17.575Z,79.00
2023-02-11T08:20:15.578Z,52.21
2023-02-11T08:21:12.998Z,42.46
2023-02-11T08:22:10.438Z,45.86
2023-02-11T08:23:07.870Z,36.53
2023-02-11T08:24:05.465Z,57.34
2023-02-11T08:25:03.082Z,41.05
2023-02-11T08:26:04.324Z,52.31
2023-02-11T08:27:01.692Z,47.17
2023-02-11T08:27:59.079Z,35.47
2023-02-11T08:28:57.656Z,35.75
2023-02-11T08:29:55.253Z,39.88
2023-02-11T08:30:52.801Z,38.32
2023-02-11T08:31:50.457Z,36.30
2023-02-11T08:32:47.834Z,42.03
2023-02-11T08:33:45.336Z,35.00
2023-02-11T08:34:42.692Z,41.82
2023-02-11T08:35:40.602Z,64.20
2023-02-11T08:36:39.685Z,56.26
2023-02-11T08:37:37.077Z,41.70
2023-02-11T08:38:34.435Z,33.75
2023-02-11T08:39:31.872Z,44.31
2023-02-11T08:40:29.333Z,47.36
2023-02-11T08:41:26.690Z,57.35
2023-02-11T08:42:24.067Z,46.84
2023-02-11T08:43:21.524Z,43.13
2023-02-11T08:44:20.776Z,50.39
2023-02-11T08:45:18.191Z,41.75
2023-02-11T08:46:17.730Z,36.64
2023-02-11T08:47:15.105Z,37.75
2023-02-11T08:48:12.414Z,34.38
2023-02-11T08:49:09.865Z,35.32
2023-02-11T08:50:07.330Z,49.28
2023-02-11T08:51:08.608Z,51.20
2023-02-11T08:52:06.030Z,52.34
2023-02-11T08:53:03.450Z,40.65
2023-02-11T08:54:01.424Z,36.37
2023-02-11T08:54:58.930Z,41.55
2023-02-11T08:55:56.688Z,43.15
2023-02-11T08:56:54.059Z,45.25
2023-02-11T08:57:51.507Z,43.07
2023-02-11T08:58:49.679Z,44.29
2023-02-11T08:59:47.016Z,38.49
2023-02-11T09:00:45.373Z,38.16
2023-02-11T09:01:44.277Z,59.28
2023-02-11T09:02:41.934Z,72.13
2023-02-11T09:03:39.293Z,54.25
2023-02-11T09:04:36.684Z,40.51
2023-02-11T09:05:34.060Z,42.37
2023-02-11T09:06:31.804Z,50.08
2023-02-11T09:07:29.143Z,42.47
2023-02-11T09:08:26.489Z,40.61
2023-02-11T09:09:24.364Z,37.63
2023-02-11T09:10:21.695Z,40.44
2023-02-11T09:11:21.301Z,36.82
2023-02-11T09:12:18.838Z,39.02
2023-02-11T09:13:16.977Z,49.50
2023-02-11T09:14:16.755Z,37.15
2023-02-11T09:15:14.173Z,35.76
2023-02-11T09:16:17.174Z,39.06
2023-02-11T09:17:14.533Z,33.61
2023-02-11T09:18:11.854Z,39.03
2023-02-11T09:19:09.568Z,31.49
2023-02-11T09:20:09.130Z,38.72
2023-02-11T09:21:09.175Z,35.06
2023-02-11T09:22:06.544Z,35.92
2023-02-11T09:23:04.230Z,33.87
2023-02-11T09:24:01.826Z,33.63
2023-02-11T09:24:59.285Z,36.17
2023-02-11T09:25:56.654Z,34.28
2023-02-11T09:26:54.045Z,31.00
2023-02-11T09:27:52.357Z,44.84
2023-02-11T09:28:49.993Z,36.60
2023-02-11T09:29:47.481Z,29.57
2023-02-11T09:30:44.880Z,32.61
2023-02-11T09:31:42.542Z,40.41
2023-02-11T09:32:39.953Z,35.36
2023-02-11T09:33:38.447Z,58.43
2023-02-11T09:34:35.760Z,45.34
2023-02-11T09:35:34.468Z,50.93
2023-02-11T09:36:33.850Z,39.25
2023-02-11T09:37:31.174Z,32.98
2023-02-11T09:38:28.705Z,31.92
2023-02-11T09:39:26.769Z,31.59
2023-02-11T09:40:24.247Z,30.58
2023-02-11T09:41:21.595Z,34.39
2023-02-11T09:42:42.102Z,33.85
2023-02-11T09:43:45.691Z,30.97
2023-02-11T09:44:44.777Z,30.77
2023-02-11T09:45:42.625Z,36.35
2023-02-11T09:46:42.466Z,32.77
2023-02-11T09:47:47.600Z,32.35
2023-02-11T09:48:48.248Z,31.37
2023-02-11T09:49:49.147Z,29.75
2023-02-11T09:50:52.832Z,30.37
2023-02-11T09:51:57.145Z,30.54
2023-02-11T09:52:54.600Z,28.67
2023-02-11T09:54:00.316Z,28.62
2023-02-11T09:55:00.633Z,29.78
2023-02-11T09:56:02.606Z,29.32
2023-02-11T09:57:00.066Z,29.27
2023-02-11T09:57:58.499Z,28.37
2023-02-11T09:58:55.886Z,28.35
2023-02-11T09:59:53.314Z,27.92
2023-02-11T10:01:10.931Z,27.53
2023-02-11T10:02:21.434Z,28.20
2023-02-11T10:03:31.971Z,29.14
2023-02-11T10:04:29.422Z,27.15
2023-02-11T10:05:26.751Z,26.92
2023-02-11T10:06:24.052Z,28.14
2023-02-11T10:07:21.398Z,29.79
2023-02-11T10:08:38.186Z,28.86
2023-02-11T10:09:50.045Z,27.98
2023-02-11T10:11:04.466Z,27.60
2023-02-11T10:12:21.743Z,26.94
2023-02-11T10:13:39.673Z,27.29
2023-02-11T10:14:50.231Z,27.11
2023-02-11T10:16:08.858Z,28.47
2023-02-11T10:17:24.517Z,27.85
2023-02-11T10:18:37.871Z,29.40
2023-02-11T10:19:57.612Z,29.30
2023-02-11T10:20:57.666Z,27.87
2023-02-11T10:22:03.864Z,30.43
2023-02-11T10:23:07.965Z,30.07
2023-02-11T10:24:10.799Z,29.37
2023-02-11T10:25:20.737Z,28.21
2023-02-11T10:26:19.010Z,27.32
2023-02-11T10:27:19.467Z,27.89
2023-02-11T10:28:18.748Z,29.17
2023-02-11T10:29:27.503Z,29.11
2023-02-11T10:30:33.059Z,27.84
2023-02-11T10:31:42.912Z,28.88
2023-02-11T10:32:40.220Z,29.67
2023-02-11T10:33:40.410Z,28.89
2023-02-11T10:34:41.340Z,28.82
2023-02-11T10:35:38.672Z,32.59
2023-02-11T10:36:38.076Z,30.42
2023-02-11T10:37:35.451Z,30.84
2023-02-11T10:38:33.907Z,30.75
2023-02-11T10:39:31.940Z,30.53
2023-02-11T10:40:30.438Z,31.80
2023-02-11T10:41:37.807Z,30.59
2023-02-11T10:42:36.246Z,31.06
2023-02-11T10:43:34.720Z,33.40
2023-02-11T10:44:36.446Z,33.17
2023-02-11T10:45:36.938Z,33.27
2023-02-11T10:46:38.186Z,33.19
2023-02-11T10:47:38.042Z,33.59
2023-02-11T10:48:37.330Z,33.86
2023-02-11T10:49:34.980Z,33.29
2023-02-11T10:50:34.957Z,33.53
2023-02-11T10:51:35.731Z,33.72
2023-02-11T10:52:33.099Z,33.55
2023-02-11T10:53:30.416Z,34.51
2023-02-11T10:54:27.751Z,34.41
2023-02-11T10:55:27.900Z,33.98
2023-02-11T10:56:28.361Z,32.46
2023-02-11T10:57:29.314Z,31.43
2023-02-11T10:58:30.818Z,32.63
2023-02-11T10:59:31.627Z,33.95
2023-02-11T11:00:42.933Z,33.39
2023-02-11T11:01:43.441Z,32.55
2023-02-11T11:02:44.618Z,31.93
2023-02-11T11:03:50.566Z,38.41
2023-02-11T11:04:48.889Z,56.16
2023-02-11T11:05:58.723Z,67.34
2023-02-11T11:06:56.878Z,35.52
2023-02-11T11:07:58.808Z,31.89
2023-02-11T11:08:56.309Z,48.69
2023-02-11T11:09:59.748Z,50.10
2023-02-11T11:11:05.000Z,34.23
2023-02-11T11:12:02.323Z,27.54
2023-02-11T11:12:59.706Z,54.44
2023-02-11T11:13:59.193Z,118.81
2023-02-11T11:14:58.215Z,52.88
2023-02-11T11:16:13.907Z,41.74
2023-02-11T11:17:18.507Z,38.73
2023-02-11T11:18:22.537Z,32.75
2023-02-11T11:19:22.360Z,33.56
2023-02-11T11:20:22.690Z,51.50
2023-02-11T11:21:25.494Z,70.15
2023-02-11T11:22:23.043Z,32.35
2023-02-11T11:23:22.824Z,43.90
2023-02-11T11:24:31.708Z,41.22
2023-02-11T11:25:30.589Z,31.87
2023-02-11T11:26:48.739Z,44.90
2023-02-11T11:27:49.571Z,161.66
2023-02-11T11:28:46.872Z,29.41
2023-02-11T11:29:49.106Z,27.39
2023-02-11T11:30:46.480Z,35.77
2023-02-11T11:32:00.842Z,186.79
2023-02-11T11:32:59.482Z,219.35
2023-02-11T11:33:59.036Z,34.90
2023-02-11T11:35:00.751Z,351.78
2023-02-11T11:36:06.666Z,218.23
2023-02-11T11:37:11.753Z,359.37
2023-02-11T11:38:14.930Z,419.22
2023-02-11T11:39:21.958Z,632.76
2023-02-11T11:40:27.171Z,581.87
2023-02-11T11:41:30.616Z,478.62
2023-02-11T11:42:30.848Z,1779.29
2023-02-11T11:43:28.256Z,2069.30
2023-02-11T11:44:27.899Z,1640.77
2023-02-11T11:45:26.717Z,245.39
2023-02-11T11:46:39.722Z,55.74
2023-02-11T11:47:55.542Z,354.40
2023-02-11T11:48:56.961Z,133.39
2023-02-11T11:50:06.803Z,108.88
2023-02-11T11:51:05.932Z,130.87
2023-02-11T11:52:16.166Z,112.24
2023-02-11T11:53:19.571Z,405.16
2023-02-11T11:54:22.002Z,107.42
2023-02-11T11:55:39.654Z,159.64
2023-02-11T11:56:42.481Z,200.14
2023-02-11T11:57:40.070Z,97.60
2023-02-11T11:58:37.664Z,42.82
2023-02-11T11:59:35.070Z,68.93
2023-02-11T12:00:37.158Z,101.41
2023-02-11T12:01:57.542Z,94.63
2023-02-11T12:02:57.738Z,162.57
2023-02-11T12:04:03.943Z,135.25
2023-02-11T12:05:20.949Z,190.06
2023-02-11T12:06:29.795Z,172.43
2023-02-11T12:07:27.085Z,227.51
2023-02-11T12:08:29.915Z,284.15
2023-02-11T12:09:36.056Z,237.75
2023-02-11T12:10:36.145Z,104.85
2023-02-11T12:11:33.393Z,101.70
2023-02-11T12:12:46.506Z,177.16
2023-02-11T12:13:53.313Z,604.55
2023-02-11T12:15:08.883Z,240.70
2023-02-11T12:16:13.741Z,162.03
2023-02-11T12:17:23.224Z,145.23
2023-02-11T12:18:47.607Z,33.91
2023-02-11T12:19:57.140Z,130.32
2023-02-11T12:21:00.152Z,144.02
2023-02-11T12:22:00.243Z,63.00
2023-02-11T12:23:03.377Z,35.89
2023-02-11T12:24:06.624Z,39.65
2023-02-11T12:25:03.902Z,25.17
2023-02-11T12:26:01.229Z,28.71
2023-02-11T12:26:58.541Z,69.85
2023-02-11T12:28:18.976Z,44.72
2023-02-11T12:29:24.290Z,64.26
2023-02-11T12:30:24.456Z,114.76
2023-02-11T12:31:35.621Z,48.23
2023-02-11T12:32:39.257Z,71.50
2023-02-11T12:33:45.476Z,28.28
2023-02-11T12:34:45.521Z,31.25
2023-02-11T12:36:01.382Z,32.69
2023-02-11T12:37:02.991Z,39.17
2023-02-11T12:38:18.741Z,36.14
2023-02-11T12:39:35.042Z,23.35
2023-02-11T12:40:42.226Z,34.69
2023-02-11T12:42:16.999Z,35.44
2023-02-11T12:43:22.167Z,35.51
2023-02-11T12:44:31.012Z,29.40
2023-02-11T12:45:36.718Z,46.44
2023-02-11T12:46:41.132Z,79.98
2023-02-11T12:47:44.354Z,57.59
2023-02-11T12:48:41.687Z,22.07
2023-02-11T12:50:08.328Z,35.62
2023-02-11T12:51:05.634Z,75.30
2023-02-11T12:52:02.983Z,34.80
2023-02-11T12:53:29.578Z,20.65
2023-02-11T12:54:33.871Z,24.31
2023-02-11T12:55:39.444Z,33.83
2023-02-11T12:56:41.133Z,41.47
2023-02-11T12:57:41.750Z,43.32
2023-02-11T12:58:45.421Z,50.82